WEATHER DATA

YESTERDAY
Time Temp. Dewp. Hum. Wind dir Wind speed Wind gust Bar. 1h Prec. 24h Prec.
00:00 20.6 12.6 60 90 0.3 0.8 1014.3 0.0000 0.0000
00:10 20.5 12.5 60 90 0.3 0.8 1014.3 0.0000 0.0000
00:20 20.4 12.6 61 90 0.3 0.8 1014.3 0.0000 0.0000
00:30 20.1 12.4 61 90 0.3 0.8 1014.4 0.0000 0.0000
00:40 19.8 12.1 61 90 0.3 0.8 1014.5 0.0000 0.0000
00:50 19.6 12.1 62 90 0.3 0.8 1014.5 0.0000 0.0000
01:00 19.3 11.8 62 90 0.3 0.8 1014.5 0.0000 0.0000
01:10 19.1 11.9 63 90 0.3 0.8 1014.5 0.0000 0.0000
01:20 18.8 11.6 63 90 0.3 0.8 1014.6 0.0000 0.0000
01:30 18.6 11.7 64 90 0.3 0.8 1014.7 0.0000 0.0000
01:40 18.5 11.6 64 90 0.3 0.8 1014.7 0.0000 0.0000
01:50 18.3 11.6 65 90 0.3 0.8 1014.7 0.0000 0.0000
02:00 18.1 11.4 65 90 0.3 0.8 1014.7 0.0000 0.0000
02:10 18.1 11.4 65 90 0.3 0.8 1014.7 0.0000 0.0000
02:20 18.1 11.7 66 90 0.3 0.8 1014.7 0.0000 0.0000
02:30 18 11.6 66 90 0.3 0.8 1014.7 0.0000 0.0000
02:40 18 11.6 66 90 0.3 0.8 1014.6 0.0000 0.0000
02:51 18 11.6 66 90 0.3 0.8 1014.6 0.0000 0.0000
03:00 18 11.6 66 90 0.3 0.8 1014.7 0.0000 0.0000
03:10 17.9 11.5 66 90 0.3 0.8 1014.5 0.0000 0.0000
03:20 17.8 11.4 66 90 0.3 0.8 1014.6 0.0000 0.0000
03:31 17.7 11.3 66 90 0.3 0.8 1014.5 0.0000 0.0000
03:41 17.7 11.5 67 90 0.3 0.8 1014.4 0.0000 0.0000
03:51 17.7 11.5 67 90 0.3 0.8 1014.4 0.0000 0.0000
04:01 17.7 11.5 67 90 0.3 0.8 1014.4 0.0000 0.0000
04:11 17.7 11.5 67 90 0.3 0.8 1014.4 0.0000 0.0000
04:21 17.7 11.5 67 90 0.3 0.8 1014.4 0.0000 0.0000
04:31 17.8 11.8 68 90 0.3 0.8 1014.3 0.0000 0.0000
04:42 17.7 11.7 68 90 0.3 0.8 1014.3 0.0000 0.0000
04:52 17.6 11.6 68 90 0.3 0.8 1014.2 0.0000 0.0000
05:02 17.6 11.6 68 90 0.3 0.8 1014.2 0.0000 0.0000
05:12 17.5 11.5 68 90 0.3 0.8 1014.2 0.0000 0.0000
05:22 17.5 11.5 68 90 0.3 0.8 1014.1 0.0000 0.0000
05:32 17.5 11.5 68 90 0.3 0.8 1014.1 0.0000 0.0000
05:42 17.6 11.9 69 90 0.3 0.8 1014 0.0000 0.0000
05:53 17.7 11.9 69 90 0.3 0.8 1014 0.0000 0.0000
06:03 17.8 12 69 90 0.3 0.8 1014 0.0000 0.0000
06:13 18 12.2 69 90 0.3 0.8 1013.9 0.0000 0.0000
06:22 18.2 12.4 69 90 0.3 0.8 1013.9 0.0000 0.0000
06:33 18.4 12.6 69 90 0.3 0.8 1014.1 0.0000 0.0000
06:43 18.6 12.8 69 90 0.3 0.8 1014.1 0.0000 0.0000
06:53 18.9 13.1 69 90 0.3 0.8 1014.1 0.0000 0.0000
07:03 19.2 13.6 70 90 0.3 0.8 1014.2 0.0000 0.0000
07:14 19.6 14 70 90 0.3 0.8 1014.2 0.0000 0.0000
07:24 19.9 14.3 70 90 0.3 0.8 1014.2 0.0000 0.0000
07:33 20.2 14.3 69 90 0.3 0.8 1014.2 0.0000 0.0000
07:44 20.6 14.7 69 90 0.3 0.8 1014.2 0.0000 0.0000
07:54 21 15.1 69 90 0.3 0.8 1014.2 0.0000 0.0000
08:04 21.2 15.3 69 90 0.3 0.8 1014.2 0.0000 0.0000
08:14 21.5 15.6 69 90 0.3 0.8 1014.3 0.0000 0.0000
08:24 21.9 16 69 90 0.3 0.8 1014.3 0.0000 0.0000
08:34 22.2 16 68 90 0.3 0.8 1014.4 0.0000 0.0000
08:44 22.4 16.2 68 90 0.3 0.8 1014.3 0.0000 0.0000
08:55 22.7 16.5 68 90 0.3 0.8 1014.4 0.0000 0.0000
09:05 22.9 16.7 68 90 0.3 0.8 1014.5 0.0000 0.0000
09:14 23.3 17.1 68 90 0.3 0.8 1014.6 0.0000 0.0000
09:24 23.5 17 67 90 0.3 0.8 1014.7 0.0000 0.0000
09:45 24 17.5 67 90 0.3 0.8 1014.7 0.0000 0.0000
09:54 24.1 17.4 66 90 0.3 0.8 1014.6 0.0000 0.0000
10:05 24.3 17.5 66 90 0.3 0.8 1014.6 0.0000 0.0000
10:15 24.6 17.8 66 90 0.3 0.8 1014.5 0.0000 0.0000
10:24 24.9 18.1 66 90 0.3 0.8 1014.7 0.0000 0.0000
10:35 25.2 18.2 65 90 0.3 0.8 1014.6 0.0000 0.0000
10:45 25.5 18.4 65 90 0.3 0.8 1014.7 0.0000 0.0000
10:55 25.7 18.4 64 90 0.3 0.8 1014.8 0.0000 0.0000
11:04 26 18.9 65 90 0.3 0.8 1014.7 0.0000 0.0000
11:15 26.4 19 64 90 0.3 0.8 1014.6 0.0000 0.0000
11:25 27 19.6 64 90 0.3 0.8 1014.6 0.0000 0.0000
11:35 27.4 19.7 63 90 0.3 0.8 1014.6 0.0000 0.0000
11:45 27.7 19.8 62 90 0.3 0.8 1014.4 0.0000 0.0000
11:55 27.9 19.9 62 90 0.3 0.8 1014.5 0.0000 0.0000
12:05 28.2 20.2 62 90 0.3 0.8 1014.3 0.0000 0.0000
12:15 28.3 20.3 62 90 0.3 0.8 1014.4 0.0000 0.0000
12:25 28.8 20.5 61 90 0.3 0.8 1014.4 0.0000 0.0000
12:35 29 20.5 60 90 0.3 0.8 1014.3 0.0000 0.0000
12:45 29.2 20.1 58 90 0.3 0.8 1014.2 0.0000 0.0000
12:56 29.2 19.8 57 90 0.3 0.8 1014.2 0.0000 0.0000
13:05 29.5 20.4 58 90 0.3 0.8 1014.1 0.0000 0.0000
13:15 29.6 20.2 57 90 0.3 0.8 1014.1 0.0000 0.0000
13:25 29.8 20.1 56 90 0.3 0.8 1013.9 0.0000 0.0000
13:35 29.6 19.6 55 90 0.3 0.8 1013.9 0.0000 0.0000
13:45 29.8 19.8 55 90 0.3 0.8 1013.9 0.0000 0.0000
13:55 30 19.7 54 90 0.3 0.8 1013.8 0.0000 0.0000
14:06 29.8 19.2 53 90 0.3 0.8 1013.8 0.0000 0.0000
14:15 29.7 18.8 52 90 0.3 0.8 1013.6 0.0000 0.0000
14:25 29.9 19.3 53 90 0.3 0.8 1013.6 0.0000 0.0000
14:35 30.3 19.3 52 90 0.3 0.8 1013.4 0.0000 0.0000
14:46 30.6 19.3 51 90 0.3 0.8 1013.4 0.0000 0.0000
14:55 31 19.4 50 90 0.3 0.8 1013.2 0.0000 0.0000
15:05 31.1 18.8 48 90 0.3 0.8 1013.1 0.0000 0.0000
15:16 31.1 18.5 47 90 0.3 0.8 1013 0.0000 0.0000
15:25 31 18 46 90 0.3 0.8 1013 0.0000 0.0000
15:35 31.1 18.5 47 90 0.3 0.8 1012.9 0.0000 0.0000
15:46 31 18 46 90 0.3 0.8 1012.8 0.0000 0.0000
15:56 30.8 17.8 46 90 0.3 0.8 1012.8 0.0000 0.0000
16:05 30.9 17.9 46 90 0.3 0.8 1012.6 0.0000 0.0000
16:15 31.2 18.2 46 90 0.3 0.8 1012.6 0.0000 0.0000
16:26 31.2 17.9 45 90 0.3 0.8 1012.5 0.0000 0.0000
16:36 31 17.3 44 90 0.3 0.8 1012.4 0.0000 0.0000
16:45 31.2 17.5 44 90 0.3 0.8 1012.3 0.0000 0.0000
16:56 31.3 17.6 44 90 0.3 0.8 1012.3 0.0000 0.0000
17:06 31.3 17.6 44 90 0.3 0.8 1012.3 0.0000 0.0000
17:16 31.4 17.3 43 90 0.3 0.8 1012.3 0.0000 0.0000
17:26 31.3 17.2 43 90 0.3 0.8 1012.1 0.0000 0.0000
17:36 31.2 17.5 44 90 0.3 0.8 1011.9 0.0000 0.0000
17:46 31 17 43 90 0.3 0.8 1011.8 0.0000 0.0000
17:56 30.9 16.9 43 90 0.3 0.8 1011.7 0.0000 0.0000
18:06 30.7 17.1 44 90 0.3 0.8 1011.7 0.0000 0.0000
18:16 30.4 16.8 44 90 0.3 0.8 1011.8 0.0000 0.0000
18:26 30.2 17 45 90 0.3 0.8 1011.6 0.0000 0.0000
18:36 30 16.8 45 90 0.3 0.8 1011.7 0.0000 0.0000
18:46 29.8 16.9 46 90 0.3 0.8 1011.8 0.0000 0.0000
18:56 29.5 17 47 90 0.3 0.8 1011.7 0.0000 0.0000
19:06 29.2 17.1 48 90 0.3 0.8 1011.7 0.0000 0.0000
19:17 28.8 17 49 90 0.3 0.8 1011.7 0.0000 0.0000
19:26 28.4 17 50 90 0.3 0.8 1011.7 0.0000 0.0000
19:36 27.9 17.1 52 90 0.3 0.8 1011.7 0.0000 0.0000
19:47 27.3 16.9 53 90 0.3 0.8 1011.6 0.0000 0.0000
19:57 26.8 16.4 53 90 0.3 0.8 1011.6 0.0000 0.0000
20:06 26.3 16 53 90 0.3 0.8 1011.6 0.0000 0.0000
20:16 25.6 15.6 54 90 0.3 0.8 1011.6 0.0000 0.0000
20:27 25.1 15.1 54 90 0.3 0.8 1011.7 0.0000 0.0000
20:37 24.4 15.1 56 90 0.3 0.8 1011.7 0.0000 0.0000
20:46 23.9 14.9 57 90 0.3 0.8 1011.8 0.0000 0.0000
21:07 22.9 14.5 59 90 0.3 0.8 1012.1 0.0000 0.0000
21:17 22.5 14.1 59 90 0.3 0.8 1012.1 0.0000 0.0000
21:27 22.1 14 60 90 0.3 0.8 1012.2 0.0000 0.0000
21:37 21.8 14 61 90 0.3 0.8 1012.1 0.0000 0.0000
21:56 21.2 13.9 63 90 0.3 0.8 1012 0.0000 0.0000
22:07 20.9 13.8 64 90 0.3 0.8 1012.1 0.0000 0.0000
22:17 20.6 13.8 65 90 0.3 0.8 1012.2 0.0000 0.0000
22:27 20.4 13.6 65 90 0.3 0.8 1012.1 0.0000 0.0000
22:37 20.2 13.7 66 90 0.3 0.8 1012.1 0.0000 0.0000
22:57 19.7 13.4 67 90 0.3 0.8 1012 0.0000 0.0000
23:07 19.6 13.5 68 90 0.3 0.8 1012 0.0000 0.0000
23:27 19.2 13.4 69 90 0.3 0.8 1011.8 0.0000 0.0000
23:37 19 13.2 69 90 0.3 0.8 1011.8 0.0000 0.0000
23:47 18.9 13.3 70 90 0.3 0.8 1011.9 0.0000 0.0000
23:57 18.8 13.2 70 90 0.3 0.8 1011.8 0.0000 0.0000

DAY STATISTIC

2018-07-20
TEMPERATURE
AVERAGE
23.9
HIGH
31.4
17:16
LOW
17.5
05:12
PRESSURE
AVERAGE
1013.5
HIGH
1014.8
10:55
LOW
1011.6
18:26
DEWPOINT
AVERAGE
15.5
HIGH
20.5
12:25
LOW
11.3
03:31
HUMIDITY
AVERAGE
60
HIGH
70
07:03
LOW
43
17:16
WIND SPEED
AVERAGE
0.3
HIGH
0.3
00:00
WIND GUST
AVERAGE
0.8
HIGH
0.8
00:00
WIND DIRECTION
PREVAILING
E
100%
N
0.0
NE
0.0
E
100.0
SE
0.0
S
0.0
SW
0.0
W
0.0
NW
0.0
PRECIPITATION
RAIN HOUR
0.0
RAIN DAY
0.0
TEMPERATURE (°C)
LOW
17.5
HIGH
31.4
AVERAGE
23.9
PRESSURE (hpa)
LOW
1011.6
HIGH
1014.8
AVERAGE
1013.5
DEVICE